Terminal Aerodrome Forecast
Issued by NWS

Home | Current Version | Previous Version | Text Only | Print | Product List | Glossary On
Versions: 1 2 3 4 5 6 7 8 9 10 11 12 13 14 15
000
FTUS43 KGRB 291100
TAFCWA
TAF
KCWA 291137Z 2912/3012 20012G20KT P6SM OVC250 WS010/22040KT
     FM291300 19017G26KT P6SM SCT100 OVC250
     FM291400 19020G29KT 3SM -PLSN SCT010 OVC028
      TEMPO 2914/2916 1SM -SN SCT005 OVC010
     FM291600 21018G25KT P6SM -SHRA BKN018
     FM292100 28023G32KT P6SM BKN040
     FM300100 29010KT P6SM SCT050=

USA.gov is the U.S. government's official web portal to all federal, state and local government web resources and services.